South Ayrshire, United Kingdom

8:26 PM BST on September 25, 2016 (GMT +0100)
Prestwick | | Change Station

Elev 66 ft 55.51 °N, 4.59 °W | Updated 6 minutes ago

Light Rain
Light Rain
52 °F
Feels Like 52 °F
N
16
Wind Variable Wind from West

Today
High -- | Low -- °F
--% Chance of Precip.
Yesterday
High -- | Low -- °F
Precip. -- in
Pressure 29.86 in
Visibility 6.2 miles
Clouds Few 2000 ft
Scattered Clouds 3000 ft
Dew Point 46 °F
Humidity 82%
Rainfall 0.00 in
Snow Depth Not available.
7:10 AM 7:08 PM
Waning Crescent, 25% visible
METAR EGPK 251920Z 28014KT 9999 -RA FEW020 SCT030 11/08 Q1011
Pressure 29.86 in
Visibility 6.2 miles
Clouds Few 2000 ft
Scattered Clouds 3000 ft
Dew Point 46 °F
Humidity 82%
Rainfall 0.00 in
Snow Depth Not available.
7:10 AM 7:08 PM
Waning Crescent, 25% visible
METAR EGPK 251920Z 28014KT 9999 -RA FEW020 SCT030 11/08 Q1011

10-Day Weather Forecast

×

Almanac

Astronomy

Sep. 25, 2016 Rise Set
Actual Time
Civil Twilight
Nautical Twilight
Astronomical Twilight
Moon
Length of Visible Light
Length of Day
Tomorrow will be .
, % of the Moon is Illuminated

Today's Extremes

Country Highs Country Lows

Community

WunderPhotos

Upload Photos

1,941,703 photos uploaded!

WunderBlog® & News

Nearby

Air Quality

  Air Quality AQ Index Pollutant
Not available.

Snow Depth

Station Depth Elevation

Earthquake Activity

City Distance Mag. Time & Date
Minimum magnitude displayed is 2.5.

Coastal Water Temperatures

Place Temperature

Stations

Nearby Weather Stations

Station Location Temp. Windchill Dew Point Humidity Wind Precip. Elev Updated Type